Union Furnace, Ohio
Current Conditions -  °F | °C
As of 3:15 AM on Monday 24 Nov 2014 (Local Time) from KUNI Reporting Station
Light Rain Light Rain  
Wind Chill: 58°   Ceiling: 4500
Heat Index: 58°   Visibility: 10mi
Dew Point: 54°   Wind: 9mph
Humidity: 86%   Direction: 190°S
Pressure: 29.42"   Gusts: 17mph
Location:  39.46°N, 82.36°W
Report Text: KUNI 240815Z AUTO 19008G15KT 10SM -RA SCT025 BKN045 OVC055 15/12 A2942 RMK AO2 T01470123
Loading
Personal Weather Stations






























Interactive Weather Map New forecast layout! Learn more

10-Day Weather Forecast

Advertisements
Track Severe Weather on mobile